sensor_id;sensor_type;location;lat;lon;timestamp;P1;durP1;ratioP1;P2;durP2;ratioP2
68108;SDS011;54893;49.864;19.084;2022-12-26T00:00:20;11.40;;;4.20;;
68108;SDS011;54893;49.864;19.084;2022-12-26T00:05:20;11.77;;;4.30;;
68108;SDS011;54893;49.864;19.084;2022-12-26T00:10:20;10.80;;;4.40;;
68108;SDS011;54893;49.864;19.084;2022-12-26T00:15:21;10.37;;;4.07;;
68108;SDS011;54893;49.864;19.084;2022-12-26T00:20:21;9.73;;;3.90;;
68108;SDS011;54893;49.864;19.084;2022-12-26T00:25:21;7.67;;;3.30;;
68108;SDS011;54893;49.864;19.084;2022-12-26T00:30:22;8.07;;;4.27;;
68108;SDS011;54893;49.864;19.084;2022-12-26T00:35:22;8.73;;;4.60;;
68108;SDS011;54893;49.864;19.084;2022-12-26T00:40:23;8.27;;;4.30;;
68108;SDS011;54893;49.864;19.084;2022-12-26T00:45:23;8.43;;;3.93;;
68108;SDS011;54893;49.864;19.084;2022-12-26T00:50:23;9.50;;;3.83;;
68108;SDS011;54893;49.864;19.084;2022-12-26T00:55:24;8.17;;;4.20;;
68108;SDS011;54893;49.864;19.084;2022-12-26T01:00:24;9.10;;;4.03;;
68108;SDS011;54893;49.864;19.084;2022-12-26T01:05:25;7.55;;;3.50;;
68108;SDS011;54893;49.864;19.084;2022-12-26T01:10:26;7.83;;;3.47;;
68108;SDS011;54893;49.864;19.084;2022-12-26T01:15:26;8.90;;;3.87;;
68108;SDS011;54893;49.864;19.084;2022-12-26T01:20:27;7.90;;;3.70;;
68108;SDS011;54893;49.864;19.084;2022-12-26T01:25:27;9.20;;;3.72;;
68108;SDS011;54893;49.864;19.084;2022-12-26T01:30:28;7.80;;;3.90;;
68108;SDS011;54893;49.864;19.084;2022-12-26T01:35:28;8.02;;;3.72;;
68108;SDS011;54893;49.864;19.084;2022-12-26T01:40:29;7.63;;;3.90;;
68108;SDS011;54893;49.864;19.084;2022-12-26T01:45:30;9.03;;;4.03;;
68108;SDS011;54893;49.864;19.084;2022-12-26T01:55:37;8.05;;;4.10;;
68108;SDS011;54893;49.864;19.084;2022-12-26T02:00:39;9.43;;;4.40;;
68108;SDS011;54893;49.864;19.084;2022-12-26T02:05:40;9.05;;;3.58;;
68108;SDS011;54893;49.864;19.084;2022-12-26T02:10:46;7.95;;;3.33;;
68108;SDS011;54893;49.864;19.084;2022-12-26T02:15:50;7.23;;;3.30;;
68108;SDS011;54893;49.864;19.084;2022-12-26T02:20:57;8.63;;;3.83;;
68108;SDS011;54893;49.864;19.084;2022-12-26T02:26:29;7.55;;;3.60;;
68108;SDS011;54893;49.864;19.084;2022-12-26T02:47:35;7.35;;;3.20;;
68108;SDS011;54893;49.864;19.084;2022-12-26T02:53:03;7.72;;;3.78;;
68108;SDS011;54893;49.864;19.084;2022-12-26T02:58:27;8.45;;;3.60;;
68108;SDS011;54893;49.864;19.084;2022-12-26T03:03:54;10.00;;;3.70;;
68108;SDS011;54893;49.864;19.084;2022-12-26T03:14:48;6.47;;;3.42;;
68108;SDS011;54893;49.864;19.084;2022-12-26T03:19:54;7.90;;;3.83;;
68108;SDS011;54893;49.864;19.084;2022-12-26T03:24:59;9.73;;;3.83;;
68108;SDS011;54893;49.864;19.084;2022-12-26T03:30:20;8.57;;;3.87;;
68108;SDS011;54893;49.864;19.084;2022-12-26T03:35:39;7.93;;;4.07;;
68108;SDS011;54893;49.864;19.084;2022-12-26T03:40:46;7.03;;;3.83;;
68108;SDS011;54893;49.864;19.084;2022-12-26T03:58:33;7.00;;;3.67;;
68108;SDS011;54893;49.864;19.084;2022-12-26T04:04:08;7.90;;;3.80;;
68108;SDS011;54893;49.864;19.084;2022-12-26T04:09:51;7.80;;;3.83;;
68108;SDS011;54893;49.864;19.084;2022-12-26T04:16:03;8.57;;;4.28;;
68108;SDS011;54893;49.864;19.084;2022-12-26T04:26:43;7.90;;;4.35;;
68108;SDS011;54893;49.864;19.084;2022-12-26T04:32:12;10.43;;;4.47;;
68108;SDS011;54893;49.864;19.084;2022-12-26T04:37:36;8.57;;;4.13;;
68108;SDS011;54893;49.864;19.084;2022-12-26T04:42:59;8.88;;;4.30;;
68108;SDS011;54893;49.864;19.084;2022-12-26T04:48:19;7.87;;;3.90;;
68108;SDS011;54893;49.864;19.084;2022-12-26T04:53:38;9.02;;;4.53;;
68108;SDS011;54893;49.864;19.084;2022-12-26T04:58:38;10.37;;;4.57;;
68108;SDS011;54893;49.864;19.084;2022-12-26T05:03:39;12.93;;;4.87;;
68108;SDS011;54893;49.864;19.084;2022-12-26T05:08:58;10.23;;;4.57;;
68108;SDS011;54893;49.864;19.084;2022-12-26T05:14:17;8.10;;;3.70;;
68108;SDS011;54893;49.864;19.084;2022-12-26T05:19:17;9.30;;;4.47;;
68108;SDS011;54893;49.864;19.084;2022-12-26T05:24:37;9.20;;;4.00;;
68108;SDS011;54893;49.864;19.084;2022-12-26T05:29:58;9.43;;;4.07;;
68108;SDS011;54893;49.864;19.084;2022-12-26T05:34:59;10.45;;;4.43;;
68108;SDS011;54893;49.864;19.084;2022-12-26T05:39:59;9.77;;;4.90;;
68108;SDS011;54893;49.864;19.084;2022-12-26T05:45:00;10.33;;;4.57;;
68108;SDS011;54893;49.864;19.084;2022-12-26T05:50:01;10.13;;;4.87;;
68108;SDS011;54893;49.864;19.084;2022-12-26T05:55:01;10.87;;;5.10;;
68108;SDS011;54893;49.864;19.084;2022-12-26T06:00:02;12.18;;;5.28;;
68108;SDS011;54893;49.864;19.084;2022-12-26T06:05:03;13.23;;;5.73;;
68108;SDS011;54893;49.864;19.084;2022-12-26T06:10:04;12.57;;;6.45;;
68108;SDS011;54893;49.864;19.084;2022-12-26T06:15:05;12.30;;;6.30;;
68108;SDS011;54893;49.864;19.084;2022-12-26T06:20:06;10.90;;;5.40;;
68108;SDS011;54893;49.864;19.084;2022-12-26T06:25:07;9.00;;;4.73;;
68108;SDS011;54893;49.864;19.084;2022-12-26T06:30:08;9.40;;;5.20;;
68108;SDS011;54893;49.864;19.084;2022-12-26T06:35:09;10.03;;;4.87;;
68108;SDS011;54893;49.864;19.084;2022-12-26T06:40:09;9.57;;;4.53;;
68108;SDS011;54893;49.864;19.084;2022-12-26T06:45:10;8.93;;;4.50;;
68108;SDS011;54893;49.864;19.084;2022-12-26T06:50:10;9.83;;;4.63;;
68108;SDS011;54893;49.864;19.084;2022-12-26T06:55:11;11.43;;;5.20;;
68108;SDS011;54893;49.864;19.084;2022-12-26T07:00:11;9.83;;;4.57;;
68108;SDS011;54893;49.864;19.084;2022-12-26T07:05:12;12.13;;;5.70;;
68108;SDS011;54893;49.864;19.084;2022-12-26T07:10:13;10.33;;;5.00;;
68108;SDS011;54893;49.864;19.084;2022-12-26T07:15:13;9.47;;;4.90;;
68108;SDS011;54893;49.864;19.084;2022-12-26T07:20:14;10.73;;;5.20;;
68108;SDS011;54893;49.864;19.084;2022-12-26T07:25:14;8.27;;;4.47;;
68108;SDS011;54893;49.864;19.084;2022-12-26T07:30:15;9.97;;;4.70;;
68108;SDS011;54893;49.864;19.084;2022-12-26T07:35:15;9.02;;;4.65;;
68108;SDS011;54893;49.864;19.084;2022-12-26T07:40:15;9.93;;;4.43;;
68108;SDS011;54893;49.864;19.084;2022-12-26T07:45:16;9.93;;;4.13;;
68108;SDS011;54893;49.864;19.084;2022-12-26T07:50:17;10.23;;;4.80;;
68108;SDS011;54893;49.864;19.084;2022-12-26T07:55:17;9.47;;;4.70;;
68108;SDS011;54893;49.864;19.084;2022-12-26T08:00:18;8.83;;;4.90;;
68108;SDS011;54893;49.864;19.084;2022-12-26T08:05:19;10.50;;;4.65;;
68108;SDS011;54893;49.864;19.084;2022-12-26T08:10:20;10.53;;;5.00;;
68108;SDS011;54893;49.864;19.084;2022-12-26T08:15:20;7.93;;;4.30;;
68108;SDS011;54893;49.864;19.084;2022-12-26T08:20:20;8.67;;;4.90;;
68108;SDS011;54893;49.864;19.084;2022-12-26T08:25:21;10.00;;;4.67;;
68108;SDS011;54893;49.864;19.084;2022-12-26T08:30:21;10.23;;;5.73;;
68108;SDS011;54893;49.864;19.084;2022-12-26T08:35:21;12.00;;;5.73;;
68108;SDS011;54893;49.864;19.084;2022-12-26T08:40:22;9.43;;;4.80;;
68108;SDS011;54893;49.864;19.084;2022-12-26T08:45:22;11.37;;;5.33;;
68108;SDS011;54893;49.864;19.084;2022-12-26T08:50:23;10.38;;;5.10;;
68108;SDS011;54893;49.864;19.084;2022-12-26T08:55:24;10.05;;;5.43;;
68108;SDS011;54893;49.864;19.084;2022-12-26T09:00:25;11.43;;;5.07;;
68108;SDS011;54893;49.864;19.084;2022-12-26T09:05:25;11.77;;;6.33;;
68108;SDS011;54893;49.864;19.084;2022-12-26T09:10:26;13.20;;;6.27;;
68108;SDS011;54893;49.864;19.084;2022-12-26T09:15:26;11.80;;;5.68;;
68108;SDS011;54893;49.864;19.084;2022-12-26T09:20:27;15.48;;;7.55;;
68108;SDS011;54893;49.864;19.084;2022-12-26T09:25:27;10.73;;;5.33;;
68108;SDS011;54893;49.864;19.084;2022-12-26T09:30:27;11.33;;;5.40;;
68108;SDS011;54893;49.864;19.084;2022-12-26T09:35:28;11.30;;;5.57;;
68108;SDS011;54893;49.864;19.084;2022-12-26T09:40:30;12.10;;;5.30;;
68108;SDS011;54893;49.864;19.084;2022-12-26T09:45:50;11.10;;;5.70;;
68108;SDS011;54893;49.864;19.084;2022-12-26T09:51:06;12.82;;;5.20;;
68108;SDS011;54893;49.864;19.084;2022-12-26T09:56:15;11.82;;;5.63;;
68108;SDS011;54893;49.864;19.084;2022-12-26T10:01:19;9.63;;;4.83;;
68108;SDS011;54893;49.864;19.084;2022-12-26T10:06:27;9.45;;;4.50;;
68108;SDS011;54893;49.864;19.084;2022-12-26T10:11:39;10.10;;;4.97;;
68108;SDS011;54893;49.864;19.084;2022-12-26T10:27:55;11.50;;;5.33;;
68108;SDS011;54893;49.864;19.084;2022-12-26T10:32:57;12.33;;;6.00;;
68108;SDS011;54893;49.864;19.084;2022-12-26T10:38:05;11.90;;;5.82;;
68108;SDS011;54893;49.864;19.084;2022-12-26T10:43:31;13.17;;;5.20;;
68108;SDS011;54893;49.864;19.084;2022-12-26T10:48:33;10.90;;;5.53;;
68108;SDS011;54893;49.864;19.084;2022-12-26T10:53:33;13.60;;;7.33;;
68108;SDS011;54893;49.864;19.084;2022-12-26T10:58:35;15.65;;;7.07;;
68108;SDS011;54893;49.864;19.084;2022-12-26T11:03:37;14.53;;;7.60;;
68108;SDS011;54893;49.864;19.084;2022-12-26T11:08:53;16.23;;;7.80;;
68108;SDS011;54893;49.864;19.084;2022-12-26T11:13:55;17.40;;;8.43;;
68108;SDS011;54893;49.864;19.084;2022-12-26T11:18:57;23.83;;;10.27;;
68108;SDS011;54893;49.864;19.084;2022-12-26T11:24:10;12.37;;;6.30;;
68108;SDS011;54893;49.864;19.084;2022-12-26T11:34:23;9.07;;;4.43;;
68108;SDS011;54893;49.864;19.084;2022-12-26T11:39:34;10.02;;;5.25;;
68108;SDS011;54893;49.864;19.084;2022-12-26T11:44:38;10.15;;;4.80;;
68108;SDS011;54893;49.864;19.084;2022-12-26T11:49:52;10.50;;;5.40;;
68108;SDS011;54893;49.864;19.084;2022-12-26T11:55:01;12.02;;;5.20;;
68108;SDS011;54893;49.864;19.084;2022-12-26T12:00:20;9.63;;;4.50;;
68108;SDS011;54893;49.864;19.084;2022-12-26T12:27:25;10.50;;;4.77;;
68108;SDS011;54893;49.864;19.084;2022-12-26T12:43:48;10.15;;;4.68;;
68108;SDS011;54893;49.864;19.084;2022-12-26T13:04:40;9.87;;;4.70;;
68108;SDS011;54893;49.864;19.084;2022-12-26T13:09:46;8.32;;;4.20;;
68108;SDS011;54893;49.864;19.084;2022-12-26T13:14:55;11.43;;;5.00;;
68108;SDS011;54893;49.864;19.084;2022-12-26T13:20:01;12.53;;;5.50;;
68108;SDS011;54893;49.864;19.084;2022-12-26T13:25:04;11.07;;;6.00;;
68108;SDS011;54893;49.864;19.084;2022-12-26T13:30:10;14.30;;;6.23;;
68108;SDS011;54893;49.864;19.084;2022-12-26T13:41:00;12.30;;;5.90;;
68108;SDS011;54893;49.864;19.084;2022-12-26T13:46:34;12.95;;;6.30;;
68108;SDS011;54893;49.864;19.084;2022-12-26T13:52:37;13.70;;;6.20;;
68108;SDS011;54893;49.864;19.084;2022-12-26T14:07:53;14.87;;;5.70;;
68108;SDS011;54893;49.864;19.084;2022-12-26T14:18:17;15.60;;;7.30;;
68108;SDS011;54893;49.864;19.084;2022-12-26T14:34:15;15.43;;;7.15;;
68108;SDS011;54893;49.864;19.084;2022-12-26T14:44:43;17.30;;;7.90;;
68108;SDS011;54893;49.864;19.084;2022-12-26T14:49:44;13.40;;;6.73;;
68108;SDS011;54893;49.864;19.084;2022-12-26T14:54:44;14.68;;;6.22;;
68108;SDS011;54893;49.864;19.084;2022-12-26T15:00:02;12.17;;;5.23;;
68108;SDS011;54893;49.864;19.084;2022-12-26T15:05:23;13.23;;;5.88;;
68108;SDS011;54893;49.864;19.084;2022-12-26T15:16:11;12.65;;;5.95;;
68108;SDS011;54893;49.864;19.084;2022-12-26T15:32:08;12.52;;;6.07;;
68108;SDS011;54893;49.864;19.084;2022-12-26T15:43:42;9.63;;;4.57;;
68108;SDS011;54893;49.864;19.084;2022-12-26T15:54:39;10.50;;;4.97;;
68108;SDS011;54893;49.864;19.084;2022-12-26T16:00:10;11.48;;;5.78;;
68108;SDS011;54893;49.864;19.084;2022-12-26T16:05:24;12.03;;;5.50;;
68108;SDS011;54893;49.864;19.084;2022-12-26T16:10:32;12.52;;;5.90;;
68108;SDS011;54893;49.864;19.084;2022-12-26T16:15:40;11.15;;;5.57;;
68108;SDS011;54893;49.864;19.084;2022-12-26T16:20:48;10.87;;;5.07;;
68108;SDS011;54893;49.864;19.084;2022-12-26T16:26:16;14.48;;;7.10;;
68108;SDS011;54893;49.864;19.084;2022-12-26T16:31:22;16.23;;;7.93;;
68108;SDS011;54893;49.864;19.084;2022-12-26T16:36:27;14.98;;;9.10;;
68108;SDS011;54893;49.864;19.084;2022-12-26T16:41:31;16.13;;;8.07;;
68108;SDS011;54893;49.864;19.084;2022-12-26T16:46:32;19.37;;;8.13;;
68108;SDS011;54893;49.864;19.084;2022-12-26T16:56:48;21.10;;;9.93;;
68108;SDS011;54893;49.864;19.084;2022-12-26T17:01:51;20.97;;;9.93;;
68108;SDS011;54893;49.864;19.084;2022-12-26T17:07:01;24.40;;;10.85;;
68108;SDS011;54893;49.864;19.084;2022-12-26T17:12:05;25.08;;;11.45;;
68108;SDS011;54893;49.864;19.084;2022-12-26T17:17:27;20.40;;;9.20;;
68108;SDS011;54893;49.864;19.084;2022-12-26T17:22:35;21.88;;;9.60;;
68108;SDS011;54893;49.864;19.084;2022-12-26T17:27:35;16.67;;;7.50;;
68108;SDS011;54893;49.864;19.084;2022-12-26T17:32:39;14.80;;;7.13;;
68108;SDS011;54893;49.864;19.084;2022-12-26T17:37:45;17.70;;;7.05;;
68108;SDS011;54893;49.864;19.084;2022-12-26T17:43:03;19.98;;;9.05;;
68108;SDS011;54893;49.864;19.084;2022-12-26T17:48:18;17.80;;;6.90;;
68108;SDS011;54893;49.864;19.084;2022-12-26T17:58:33;10.93;;;5.68;;
68108;SDS011;54893;49.864;19.084;2022-12-26T18:03:34;9.27;;;4.63;;
68108;SDS011;54893;49.864;19.084;2022-12-26T18:08:38;13.88;;;5.80;;
68108;SDS011;54893;49.864;19.084;2022-12-26T18:13:40;20.42;;;9.50;;
68108;SDS011;54893;49.864;19.084;2022-12-26T18:18:45;25.27;;;10.70;;
68108;SDS011;54893;49.864;19.084;2022-12-26T18:23:46;22.27;;;9.60;;
68108;SDS011;54893;49.864;19.084;2022-12-26T18:28:48;21.10;;;8.43;;
68108;SDS011;54893;49.864;19.084;2022-12-26T18:33:49;18.67;;;8.85;;
68108;SDS011;54893;49.864;19.084;2022-12-26T18:38:49;20.30;;;9.87;;
68108;SDS011;54893;49.864;19.084;2022-12-26T18:43:49;14.87;;;6.67;;
68108;SDS011;54893;49.864;19.084;2022-12-26T18:48:50;13.68;;;7.05;;
68108;SDS011;54893;49.864;19.084;2022-12-26T18:53:53;15.30;;;7.57;;
68108;SDS011;54893;49.864;19.084;2022-12-26T18:58:53;19.43;;;8.63;;
68108;SDS011;54893;49.864;19.084;2022-12-26T19:03:54;16.02;;;6.53;;
68108;SDS011;54893;49.864;19.084;2022-12-26T19:08:54;16.03;;;7.83;;
68108;SDS011;54893;49.864;19.084;2022-12-26T19:13:55;15.67;;;7.73;;
68108;SDS011;54893;49.864;19.084;2022-12-26T19:18:56;15.93;;;7.43;;
68108;SDS011;54893;49.864;19.084;2022-12-26T19:23:56;14.83;;;6.43;;
68108;SDS011;54893;49.864;19.084;2022-12-26T19:28:57;15.70;;;6.80;;
68108;SDS011;54893;49.864;19.084;2022-12-26T19:33:57;13.47;;;6.70;;
68108;SDS011;54893;49.864;19.084;2022-12-26T19:38:58;14.60;;;6.53;;
68108;SDS011;54893;49.864;19.084;2022-12-26T19:43:59;10.67;;;5.90;;
68108;SDS011;54893;49.864;19.084;2022-12-26T19:48:59;10.55;;;5.10;;
68108;SDS011;54893;49.864;19.084;2022-12-26T19:54:00;11.23;;;5.60;;
68108;SDS011;54893;49.864;19.084;2022-12-26T19:59:00;12.80;;;5.93;;
68108;SDS011;54893;49.864;19.084;2022-12-26T20:04:01;10.93;;;5.10;;
68108;SDS011;54893;49.864;19.084;2022-12-26T20:09:04;11.52;;;5.03;;
68108;SDS011;54893;49.864;19.084;2022-12-26T20:14:09;10.70;;;5.00;;
68108;SDS011;54893;49.864;19.084;2022-12-26T20:19:12;8.10;;;4.60;;
68108;SDS011;54893;49.864;19.084;2022-12-26T20:24:12;8.37;;;4.43;;
68108;SDS011;54893;49.864;19.084;2022-12-26T20:29:13;7.43;;;3.87;;
68108;SDS011;54893;49.864;19.084;2022-12-26T20:34:14;7.87;;;4.03;;
68108;SDS011;54893;49.864;19.084;2022-12-26T20:39:15;8.35;;;3.60;;
68108;SDS011;54893;49.864;19.084;2022-12-26T20:44:17;8.17;;;4.10;;
68108;SDS011;54893;49.864;19.084;2022-12-26T20:49:17;8.48;;;3.80;;
68108;SDS011;54893;49.864;19.084;2022-12-26T20:54:18;8.37;;;4.50;;
68108;SDS011;54893;49.864;19.084;2022-12-26T20:59:18;7.53;;;3.77;;
68108;SDS011;54893;49.864;19.084;2022-12-26T21:04:20;7.67;;;4.00;;
68108;SDS011;54893;49.864;19.084;2022-12-26T21:09:21;6.05;;;3.03;;
68108;SDS011;54893;49.864;19.084;2022-12-26T21:14:21;9.50;;;3.47;;
68108;SDS011;54893;49.864;19.084;2022-12-26T21:19:23;6.88;;;3.42;;
68108;SDS011;54893;49.864;19.084;2022-12-26T21:24:26;7.78;;;3.90;;
68108;SDS011;54893;49.864;19.084;2022-12-26T21:29:29;6.82;;;3.83;;
68108;SDS011;54893;49.864;19.084;2022-12-26T21:34:31;8.10;;;3.60;;
68108;SDS011;54893;49.864;19.084;2022-12-26T21:39:33;6.88;;;3.67;;
68108;SDS011;54893;49.864;19.084;2022-12-26T21:44:35;6.43;;;3.35;;
68108;SDS011;54893;49.864;19.084;2022-12-26T21:49:36;6.63;;;3.22;;
68108;SDS011;54893;49.864;19.084;2022-12-26T21:54:37;7.30;;;3.33;;
68108;SDS011;54893;49.864;19.084;2022-12-26T21:59:56;7.72;;;3.78;;
68108;SDS011;54893;49.864;19.084;2022-12-26T22:04:56;7.47;;;3.97;;
68108;SDS011;54893;49.864;19.084;2022-12-26T22:09:57;7.90;;;3.70;;
68108;SDS011;54893;49.864;19.084;2022-12-26T22:14:57;7.77;;;3.40;;
68108;SDS011;54893;49.864;19.084;2022-12-26T22:19:58;7.70;;;3.70;;
68108;SDS011;54893;49.864;19.084;2022-12-26T22:24:58;8.17;;;3.93;;
68108;SDS011;54893;49.864;19.084;2022-12-26T22:29:58;7.30;;;3.97;;
68108;SDS011;54893;49.864;19.084;2022-12-26T22:34:59;9.20;;;3.97;;
68108;SDS011;54893;49.864;19.084;2022-12-26T22:39:59;6.87;;;3.43;;
68108;SDS011;54893;49.864;19.084;2022-12-26T22:44:59;7.27;;;3.50;;
68108;SDS011;54893;49.864;19.084;2022-12-26T22:50:00;6.80;;;3.70;;
68108;SDS011;54893;49.864;19.084;2022-12-26T22:55:00;6.80;;;3.40;;
68108;SDS011;54893;49.864;19.084;2022-12-26T23:00:00;8.47;;;4.70;;
68108;SDS011;54893;49.864;19.084;2022-12-26T23:05:02;8.32;;;4.20;;
68108;SDS011;54893;49.864;19.084;2022-12-26T23:10:04;8.63;;;3.87;;
68108;SDS011;54893;49.864;19.084;2022-12-26T23:15:05;8.23;;;3.63;;
68108;SDS011;54893;49.864;19.084;2022-12-26T23:20:06;7.93;;;3.80;;
68108;SDS011;54893;49.864;19.084;2022-12-26T23:25:29;7.47;;;3.88;;
68108;SDS011;54893;49.864;19.084;2022-12-26T23:30:29;9.07;;;3.30;;
68108;SDS011;54893;49.864;19.084;2022-12-26T23:35:30;8.30;;;3.50;;
68108;SDS011;54893;49.864;19.084;2022-12-26T23:40:30;7.40;;;3.20;;
68108;SDS011;54893;49.864;19.084;2022-12-26T23:45:31;7.67;;;3.37;;
68108;SDS011;54893;49.864;19.084;2022-12-26T23:50:31;6.50;;;2.90;;
68108;SDS011;54893;49.864;19.084;2022-12-26T23:55:32;7.83;;;3.43;;
